Список аэропортов
Фактическая погода:

23 апреля, 12:30
Температура: +17°C (+17.0*)
Ветер: северный 2 м/с
Давление: *764 мм
Без существ. явл.
Время (МСК)Темп. СВетерВлажностьДавлениеОблачностьОсадки
09:00+8С, 2 м/с70%1020 гПаоблачносл. дождь
10:00+10СВ, 2 м/с64%1019 гПаоблачно
11:00+14СВ, 2 м/с53%1019 гПаоблачно
12:00+16СВ, 1 м/с43%1018 гПаоблачно
13:00+18В, 1 м/с36%1017 гПаоблачно
14:00+20В, 1 м/с32%1016 гПаоблачно
15:00+21ЮВ, 1 м/с28%1016 гПаоблачно
16:00+23Ю, 1 м/с24%1015 гПаоблачно
17:00+23Ю, 1 м/с22%1014 гПаоблачно
18:00+24Ю, 1 м/с19%1013 гПаоблачно
19:00+24Штиль 17%1013 гПаясно
20:00+24ЮВ, 1 м/с18%1013 гПаясно
21:00+24Штиль 26%1013 гПаясно
22:00+20З, 1 м/с29%1014 гПамалооблачно
23:00+19СЗ, 1 м/с32%1015 гПас прояснениями
24 апреля
00:00+17СЗ, 2 м/с39%1015 гПамалооблачно
01:00+14Штиль 54%1016 гПаясно
02:00+13ЮВ, 1 м/с49%1016 гПаясно
03:00+13Ю, 2 м/с44%1016 гПаясно
04:00+11В, 1 м/с51%1017 гПаясно
05:00+11СВ, 2 м/с54%1017 гПаясно
06:00+9С, 2 м/с61%1017 гПаясно
07:00+8С, 2 м/с67%1017 гПаясно
08:00+7С, 2 м/с71%1017 гПаясно
09:00+7С, 2 м/с72%1018 гПаясно
10:00+10СВ, 2 м/с60%1016 гПамалооблачно
11:00+14СВ, 2 м/с41%1016 гПас прояснениями
12:00+16ЮВ, 1 м/с43%1015 гПамалооблачно
13:00+18ЮВ, 1 м/с44%1014 гПас прояснениями
14:00+20ЮВ, 1 м/с42%1013 гПас прояснениями
15:00+22Ю, 2 м/с40%1012 гПас прояснениями
16:00+24ЮЗ, 2 м/с36%1011 гПаоблачно
17:00+25ЮЗ, 2 м/с31%1011 гПаоблачно
18:00+25ЮЗ, 5 м/с32%1010 гПаоблачно
19:00+24ЮЗ, 6 м/с36%1010 гПаоблачносл. дождь
20:00+22ЮЗ, 5 м/с50%1011 гПаоблачнодождь
21:00+20ЮЗ, 4 м/с61%1011 гПаоблачнодождь
22:00+19ЮЗ, 3 м/с66%1011 гПаоблачнодождь
23:00+17Ю, 3 м/с73%1012 гПаоблачнодождь
25 апреля
00:00+16Ю, 2 м/с80%1012 гПаоблачнодождь
01:00+15Ю, 2 м/с85%1012 гПаоблачно
02:00+14ЮЗ, 2 м/с89%1012 гПаоблачно
03:00+13ЮЗ, 2 м/с92%1012 гПаоблачно
04:00+13Ю, 1 м/с95%1012 гПаоблачно
05:00+12Ю, 2 м/с97%1011 гПаоблачно
06:00+12Ю, 1 м/с98%1011 гПаоблачно
07:00+11ЮЗ, 2 м/с99%1011 гПас прояснениями
08:00+10Штиль 99%1011 гПас прояснениями
09:00+10Штиль 99%1011 гПаоблачно